Time;durP1;ratioP1;P1;durP2;ratioP2;P2;SDS_P1;SDS_P2;PMS_P1;PMS_P2;Temp;Humidity;BMP_temperature;BMP_pressure;BME280_temperature;BME280_humidity;BME280_pressure;Samples;Min_cycle;Max_cycle;Signal;HPM_P1;HPM_P2
2023/05/27 00:02:23;;;;;;;8.63;1.70;;;;;;;15.75;43.24;101288.88;10302238;28;20049;-65
2023/05/27 00:07:25;;;;;;;6.38;1.40;;;;;;;15.66;43.40;101291.66;10298958;28;20140;-64
2023/05/27 00:12:26;;;;;;;9.45;1.63;;;;;;;15.66;43.58;101288.94;10303179;28;20417;-65
2023/05/27 00:17:28;;;;;;;8.88;0.90;;;;;;;15.60;43.62;101288.84;10289354;28;20044;-68
2023/05/27 00:22:29;;;;;;;7.70;1.60;;;;;;;15.49;43.89;101298.28;10292284;28;20112;-66
2023/05/27 00:27:31;;;;;;;8.30;1.05;;;;;;;15.41;44.19;101298.34;10283631;28;20062;-64
2023/05/27 00:32:32;;;;;;;5.80;0.70;;;;;;;15.39;44.31;101284.16;10284016;28;20046;-69
2023/05/27 00:37:34;;;;;;;10.27;1.60;;;;;;;15.30;44.61;101285.25;10295542;28;20544;-65
2023/05/27 00:42:36;;;;;;;11.52;1.48;;;;;;;15.18;44.73;101282.97;10292200;28;20076;-66
2023/05/27 00:47:37;;;;;;;7.93;1.33;;;;;;;15.15;44.86;101296.06;10295243;28;20055;-67
2023/05/27 00:52:39;;;;;;;9.68;1.20;;;;;;;15.10;44.93;101293.88;10303875;28;20129;-65
2023/05/27 00:57:41;;;;;;;8.65;1.00;;;;;;;15.04;45.04;101290.03;10303414;28;20053;-67
2023/05/27 01:02:42;;;;;;;12.43;1.77;;;;;;;15.05;45.09;101290.91;10296117;28;20798;-67
2023/05/27 01:08:12;;;;;;;13.20;1.83;;;;;;;15.03;45.19;101287.53;10304626;28;20045;-65
2023/05/27 01:13:26;;;;;;;7.18;1.52;;;;;;;14.99;45.22;101284.34;10304441;28;20053;-65
2023/05/27 01:18:29;;;;;;;8.65;1.00;;;;;;;14.97;45.26;101289.09;10299118;28;20130;-66
2023/05/27 01:23:31;;;;;;;9.75;1.42;;;;;;;14.90;45.74;101281.88;10297942;28;20042;-66
2023/05/27 01:28:33;;;;;;;9.98;1.45;;;;;;;14.79;45.75;101278.59;10281880;28;20393;-68
2023/05/27 01:33:36;;;;;;;7.35;1.42;;;;;;;14.74;45.98;101272.03;10302520;28;20096;-67
2023/05/27 01:38:42;;;;;;;8.25;1.30;;;;;;;14.74;46.33;101283.69;10288621;28;20126;-66
2023/05/27 01:43:44;;;;;;;15.77;2.00;;;;;;;14.64;46.46;101275.81;10296653;28;20049;-66
2023/05/27 01:48:46;;;;;;;9.68;2.42;;;;;;;14.55;46.51;101274.13;10302356;28;20061;-66
2023/05/27 01:53:47;;;;;;;9.60;1.88;;;;;;;14.48;46.84;101274.03;10295460;28;20489;-66
2023/05/27 01:58:49;;;;;;;10.10;2.20;;;;;;;14.46;46.96;101273.34;10303076;28;20509;-68
2023/05/27 02:03:50;;;;;;;12.05;1.50;;;;;;;14.44;47.15;101277.28;10308615;28;20438;-66
2023/05/27 02:08:52;;;;;;;9.35;2.10;;;;;;;14.39;47.76;101266.97;10298011;28;20070;-67
2023/05/27 02:13:53;;;;;;;14.48;2.10;;;;;;;14.30;47.99;101268.06;10291846;28;20050;-65
2023/05/27 02:18:55;;;;;;;10.27;1.45;;;;;;;14.21;48.48;101271.81;10299339;28;20065;-66
2023/05/27 02:23:56;;;;;;;10.15;1.98;;;;;;;14.09;48.79;101266.78;10300319;28;20070;-63
2023/05/27 02:28:58;;;;;;;13.15;1.50;;;;;;;14.03;48.97;101272.91;10299183;28;20157;-68
2023/05/27 02:33:59;;;;;;;8.75;1.83;;;;;;;13.94;49.25;101265.88;10305516;28;20038;-67
2023/05/27 02:39:01;;;;;;;8.07;2.47;;;;;;;13.82;49.56;101259.16;10301738;28;20086;-64
2023/05/27 02:44:03;;;;;;;14.18;3.65;;;;;;;13.71;49.98;101259.53;10277047;28;20127;-68
2023/05/27 02:49:04;;;;;;;7.88;1.75;;;;;;;13.57;50.56;101263.81;10299194;28;20054;-66
2023/05/27 02:54:05;;;;;;;13.10;1.92;;;;;;;13.41;50.94;101262.81;10301770;28;20046;-68
2023/05/27 02:59:07;;;;;;;18.67;2.42;;;;;;;13.32;51.00;101260.31;10296271;28;20088;-65
2023/05/27 03:04:09;;;;;;;10.50;1.65;;;;;;;13.24;51.61;101253.88;10300414;28;20054;-68
2023/05/27 03:09:10;;;;;;;8.48;2.00;;;;;;;13.17;51.29;101252.03;10294389;28;20521;-66
2023/05/27 03:14:12;;;;;;;9.75;1.90;;;;;;;13.15;51.74;101248.66;10302495;28;20537;-66
2023/05/27 03:19:13;;;;;;;13.23;3.13;;;;;;;13.15;51.62;101251.34;10296318;28;20046;-68
2023/05/27 03:24:15;;;;;;;8.40;1.98;;;;;;;13.11;52.20;101256.25;10284372;28;20121;-64
2023/05/27 03:29:16;;;;;;;14.68;2.95;;;;;;;13.13;51.79;101254.25;10292198;28;20129;-63
2023/05/27 03:34:18;;;;;;;11.00;1.95;;;;;;;13.07;52.24;101249.50;10295576;28;20071;-68
2023/05/27 03:39:19;;;;;;;9.88;2.95;;;;;;;13.04;52.01;101242.59;10301355;28;20054;-65
2023/05/27 03:44:21;;;;;;;14.50;2.88;;;;;;;13.06;52.44;101245.13;10296089;28;20122;-64
2023/05/27 03:49:22;;;;;;;15.25;2.08;;;;;;;13.04;52.52;101248.00;10301695;28;20429;-66
2023/05/27 03:54:24;;;;;;;14.80;2.53;;;;;;;13.04;52.89;101245.28;10302039;28;20101;-64
2023/05/27 03:59:26;;;;;;;13.35;1.88;;;;;;;13.10;52.92;101249.16;10299586;28;20089;-65
2023/05/27 04:04:27;;;;;;;8.05;2.05;;;;;;;13.09;52.98;101248.34;10306737;28;20046;-63
2023/05/27 04:09:29;;;;;;;10.48;1.85;;;;;;;13.14;52.63;101245.13;10278971;28;20049;-65
2023/05/27 04:14:30;;;;;;;5.40;1.77;;;;;;;13.17;52.66;101243.91;10289411;28;20042;-65
2023/05/27 04:19:32;;;;;;;13.73;2.80;;;;;;;13.21;52.85;101243.44;10297747;28;20050;-63
2023/05/27 04:24:34;;;;;;;11.85;2.17;;;;;;;13.29;53.20;101246.13;10293730;28;20089;-66
2023/05/27 04:29:37;;;;;;;13.40;4.50;;;;;;;13.32;52.96;101250.34;10292635;28;20043;-66
2023/05/27 04:34:44;;;;;;;10.82;3.47;;;;;;;13.43;52.98;101254.56;10298313;28;20034;-65
2023/05/27 04:39:46;;;;;;;11.82;2.28;;;;;;;13.48;53.29;101246.75;10304166;28;20046;-65
2023/05/27 04:44:48;;;;;;;11.00;2.33;;;;;;;13.55;53.10;101247.75;10303744;28;20042;-67
2023/05/27 04:49:50;;;;;;;13.57;2.15;;;;;;;13.66;53.25;101241.13;10288905;28;20061;-67
2023/05/27 04:54:51;;;;;;;9.18;1.77;;;;;;;13.82;52.92;101248.34;10303657;28;20047;-67
2023/05/27 05:00:13;;;;;;;13.35;2.65;;;;;;;13.92;53.09;101254.41;10302720;28;20138;-67
2023/05/27 05:05:15;;;;;;;13.68;2.00;;;;;;;14.03;53.03;101253.97;10295705;28;20047;-67
2023/05/27 05:10:16;;;;;;;12.45;2.60;;;;;;;14.14;52.98;101249.19;10304073;28;20062;-67
2023/05/27 05:15:18;;;;;;;13.05;2.72;;;;;;;14.21;52.95;101255.59;10297892;28;20038;-66
2023/05/27 05:20:19;;;;;;;11.68;2.92;;;;;;;14.30;53.09;101257.25;10298656;28;20050;-66
2023/05/27 05:25:21;;;;;;;15.15;3.38;;;;;;;14.37;53.10;101251.94;10296405;28;20068;-66
2023/05/27 05:30:23;;;;;;;14.20;2.33;;;;;;;14.46;52.77;101251.72;10298461;28;20398;-66
2023/05/27 05:35:24;;;;;;;11.13;2.50;;;;;;;14.54;53.20;101256.22;10301058;28;20053;-64
2023/05/27 05:40:25;;;;;;;13.07;2.60;;;;;;;14.72;52.80;101253.25;10297928;28;20062;-66
2023/05/27 05:45:27;;;;;;;12.90;1.92;;;;;;;14.80;52.92;101252.34;10301849;28;20477;-66
2023/05/27 05:50:28;;;;;;;14.82;2.63;;;;;;;15.02;52.36;101261.47;10301018;28;20058;-66
2023/05/27 05:55:30;;;;;;;11.98;2.83;;;;;;;15.18;52.17;101271.31;10295927;28;20095;-66
2023/05/27 06:00:32;;;;;;;10.93;1.90;;;;;;;15.26;52.06;101266.69;10297927;28;20104;-60
2023/05/27 06:05:33;;;;;;;13.35;3.10;;;;;;;15.39;51.95;101274.16;10299230;28;20051;-62
2023/05/27 06:10:35;;;;;;;11.48;2.03;;;;;;;15.49;51.62;101265.75;10303885;28;20042;-61
2023/05/27 06:15:37;;;;;;;11.90;2.45;;;;;;;15.60;51.32;101267.16;10302520;28;20062;-61
2023/05/27 06:20:38;;;;;;;9.25;1.42;;;;;;;15.70;51.54;101269.59;10296307;28;20074;-65
2023/05/27 06:25:40;;;;;;;12.30;2.25;;;;;;;15.82;50.87;101268.97;10302014;28;20088;-60
2023/05/27 06:30:42;;;;;;;8.50;2.30;;;;;;;16.05;50.50;101271.56;10293560;28;20047;-61
2023/05/27 06:35:44;;;;;;;11.25;1.88;;;;;;;16.14;49.65;101255.19;10294990;28;20125;-62
2023/05/27 06:40:45;;;;;;;10.63;2.83;;;;;;;16.32;49.65;101262.91;10301681;28;20058;-62
2023/05/27 06:45:47;;;;;;;8.73;1.98;;;;;;;16.50;48.86;101251.63;10295897;28;20648;-61
2023/05/27 06:51:06;;;;;;;11.25;1.95;;;;;;;16.58;48.45;101241.47;10300751;28;20417;-59
2023/05/27 06:56:07;;;;;;;8.90;1.98;;;;;;;16.58;48.77;101252.31;10299975;28;20062;-61
2023/05/27 07:01:09;;;;;;;10.43;1.42;;;;;;;16.64;48.27;101239.84;10284360;28;20069;-60
2023/05/27 07:06:10;;;;;;;8.13;1.80;;;;;;;16.82;47.76;101237.56;10294287;28;20422;-60
2023/05/27 07:11:12;;;;;;;11.90;2.40;;;;;;;16.98;47.63;101239.16;10304547;28;20043;-63
2023/05/27 07:16:13;;;;;;;8.05;1.63;;;;;;;17.04;47.54;101240.22;10300835;28;20051;-61
2023/05/27 07:21:15;;;;;;;8.27;1.83;;;;;;;17.10;47.21;101235.88;10301008;28;20046;-60
2023/05/27 07:26:16;;;;;;;8.32;1.38;;;;;;;17.32;46.94;101236.66;10298155;28;20034;-61
2023/05/27 07:31:18;;;;;;;10.57;2.08;;;;;;;17.48;46.70;101225.50;10296785;28;20053;-62
2023/05/27 07:36:19;;;;;;;8.68;1.73;;;;;;;17.62;46.73;101213.66;10297313;28;20120;-62
2023/05/27 07:41:22;;;;;;;14.45;2.35;;;;;;;17.75;46.40;101214.75;10288920;28;20430;-60
2023/05/27 07:46:24;;;;;;;6.13;1.40;;;;;;;18.06;45.86;101211.56;10297252;28;20050;-62
2023/05/27 07:51:26;;;;;;;10.95;1.60;;;;;;;18.19;45.38;101203.44;10295513;28;20056;-62
2023/05/27 07:56:27;;;;;;;9.05;1.80;;;;;;;18.28;45.36;101203.25;10301498;28;20156;-62
2023/05/27 08:01:32;;;;;;;9.65;2.10;;;;;;;18.47;45.27;101190.72;10298678;28;20437;-63
2023/05/27 08:06:33;;;;;;;7.78;2.05;;;;;;;18.62;44.54;101183.19;10296535;28;20405;-63
2023/05/27 08:11:34;;;;;;;11.55;2.55;;;;;;;18.80;44.73;101188.06;10298879;28;20085;-63
2023/05/27 08:16:36;;;;;;;9.63;1.92;;;;;;;18.99;43.98;101186.34;10295603;28;20485;-65
2023/05/27 08:21:37;;;;;;;5.72;1.60;;;;;;;19.16;43.35;101179.41;10296393;28;20069;-65
2023/05/27 08:26:39;;;;;;;7.70;1.50;;;;;;;19.26;43.46;101173.53;10290831;28;20046;-65
2023/05/27 08:31:40;;;;;;;10.15;2.38;;;;;;;19.48;42.95;101157.72;10298497;28;20044;-65
2023/05/27 08:36:42;;;;;;;8.85;1.88;;;;;;;19.66;42.38;101162.50;10295088;28;20055;-64
2023/05/27 08:41:44;;;;;;;9.50;1.95;;;;;;;19.84;42.26;101147.34;10293121;28;20468;-65
2023/05/27 08:46:49;;;;;;;8.85;1.58;;;;;;;20.04;41.88;101145.31;10294974;28;20042;-65
2023/05/27 08:51:51;;;;;;;9.05;1.65;;;;;;;20.24;41.51;101147.09;10294860;28;20112;-65
2023/05/27 08:56:59;;;;;;;7.50;1.73;;;;;;;20.47;41.13;101141.03;10295221;28;20545;-64
2023/05/27 09:02:02;;;;;;;15.63;1.80;;;;;;;20.53;41.08;101140.16;10299255;28;20508;-61
2023/05/27 09:07:03;;;;;;;6.47;1.40;;;;;;;20.79;40.82;101137.25;10305998;28;20046;-61
2023/05/27 09:12:06;;;;;;;8.35;1.55;;;;;;;20.97;40.00;101122.75;10303960;28;20050;-64
2023/05/27 09:17:08;;;;;;;8.05;2.40;;;;;;;21.20;40.26;101119.34;10310404;28;20125;-59
2023/05/27 09:22:35;;;;;;;8.35;2.03;;;;;;;21.35;39.61;101112.69;10302993;28;20057;-60
2023/05/27 09:27:37;;;;;;;7.03;1.38;;;;;;;21.47;39.35;101110.88;10309709;28;20035;-60
2023/05/27 09:32:38;;;;;;;7.05;1.38;;;;;;;21.61;38.57;101105.22;10305962;28;20057;-60
2023/05/27 09:37:40;;;;;;;8.57;1.50;;;;;;;21.83;38.75;101105.56;10289299;28;20097;-62
2023/05/27 09:42:43;;;;;;;7.10;1.73;;;;;;;21.99;38.42;101107.63;10301925;28;20042;-62
2023/05/27 09:47:50;;;;;;;6.85;1.55;;;;;;;22.10;38.16;101101.34;10299184;28;20453;-60
2023/05/27 09:52:54;;;;;;;9.18;1.65;;;;;;;22.26;38.13;101091.66;10303129;28;20051;-62
2023/05/27 09:58:12;;;;;;;11.73;1.52;;;;;;;22.48;37.83;101086.44;10301572;28;20234;-60
2023/05/27 10:03:16;;;;;;;12.68;2.15;;;;;;;22.51;37.88;101079.63;10300298;28;20053;-62
2023/05/27 10:08:18;;;;;;;9.95;1.58;;;;;;;22.76;37.38;101073.94;10300778;28;20654;-61
2023/05/27 10:13:27;;;;;;;7.78;1.70;;;;;;;22.91;37.16;101071.53;10301710;28;20137;-60
2023/05/27 10:18:29;;;;;;;10.18;1.77;;;;;;;23.19;36.79;101058.16;10303599;28;20049;-63
2023/05/27 10:23:32;;;;;;;12.02;1.52;;;;;;;23.43;36.24;101062.50;10294497;28;20042;-60
2023/05/27 10:28:41;;;;;;;9.20;1.88;;;;;;;23.72;35.83;101046.03;10299868;28;20076;-61
2023/05/27 10:33:44;;;;;;;8.30;1.98;;;;;;;23.89;35.43;101046.06;10297235;28;20057;-61
2023/05/27 10:38:57;;;;;;;9.88;1.50;;;;;;;24.06;35.20;101041.44;10300844;28;20058;-63
2023/05/27 10:43:59;;;;;;;6.53;1.60;;;;;;;24.30;35.40;101036.59;10300971;28;20051;-62
2023/05/27 10:49:10;;;;;;;8.57;1.63;;;;;;;24.66;34.69;101034.41;10304247;28;20165;-64
2023/05/27 10:54:12;;;;;;;11.50;1.95;;;;;;;24.88;34.17;101025.34;10297868;28;20070;-65
2023/05/27 10:59:21;;;;;;;6.13;1.33;;;;;;;25.14;33.20;101019.09;10300843;28;20058;-65
2023/05/27 11:04:23;;;;;;;10.98;1.10;;;;;;;24.96;33.36;101011.19;10297842;28;20285;-65
2023/05/27 11:09:24;;;;;;;9.07;2.17;;;;;;;25.39;32.14;101001.22;10294978;28;20049;-67
2023/05/27 11:14:26;;;;;;;6.85;1.40;;;;;;;25.57;31.68;101000.03;10298765;28;20050;-67
2023/05/27 11:19:27;;;;;;;6.43;1.20;;;;;;;25.64;31.91;100995.16;10295782;28;20058;-67
2023/05/27 11:24:29;;;;;;;5.93;1.60;;;;;;;25.89;30.90;100993.75;10292808;28;20532;-67
2023/05/27 11:29:31;;;;;;;5.72;1.30;;;;;;;26.09;30.84;100982.06;10294328;28;20050;-64
2023/05/27 11:34:36;;;;;;;6.57;1.58;;;;;;;26.35;31.06;100974.81;10295657;28;20051;-67
2023/05/27 11:39:48;;;;;;;6.13;1.60;;;;;;;26.41;30.38;100964.63;10291911;28;20157;-66
2023/05/27 11:44:53;;;;;;;7.05;2.15;;;;;;;26.76;30.04;100950.22;10294595;28;20500;-65
2023/05/27 11:49:56;;;;;;;9.82;1.23;;;;;;;27.00;29.72;100947.81;10299557;28;20582;-66
2023/05/27 11:54:57;;;;;;;8.75;1.85;;;;;;;27.25;29.34;100943.47;10300339;28;20035;-66
2023/05/27 11:59:59;;;;;;;8.48;2.05;;;;;;;27.43;28.58;100933.84;10297609;28;20058;-68
2023/05/27 12:05:01;;;;;;;6.75;1.42;;;;;;;27.29;28.30;100926.13;10294817;28;20042;-66
2023/05/27 12:10:02;;;;;;;7.18;1.13;;;;;;;27.63;27.71;100922.81;10316771;28;20034;-66
2023/05/27 12:15:04;;;;;;;3.63;1.27;;;;;;;27.96;26.79;100912.31;10332795;28;20043;-66
2023/05/27 12:20:08;;;;;;;5.63;1.13;;;;;;;28.24;26.33;100910.88;10336067;28;20121;-64
2023/05/27 12:25:09;;;;;;;6.45;1.40;;;;;;;28.45;25.70;100908.03;10329137;28;20045;-67
2023/05/27 12:30:12;;;;;;;4.50;1.40;;;;;;;28.55;25.75;100898.91;10308568;28;20043;-62
2023/05/27 12:35:14;;;;;;;6.45;1.50;;;;;;;28.45;25.71;100883.97;10290555;28;20082;-63
2023/05/27 12:40:15;;;;;;;9.70;1.85;;;;;;;28.85;25.08;100887.69;10298101;28;20290;-63
2023/05/27 12:45:17;;;;;;;7.93;1.67;;;;;;;29.20;23.85;100883.06;10295503;28;20133;-62
2023/05/27 12:50:19;;;;;;;4.78;1.70;;;;;;;29.34;23.37;100872.16;10302961;28;20050;-63
2023/05/27 12:55:21;;;;;;;5.60;1.40;;;;;;;29.71;23.56;100862.41;10303924;28;20493;-63
2023/05/27 13:00:23;;;;;;;7.82;1.67;;;;;;;29.95;22.91;100856.09;10305159;28;20080;-64
2023/05/27 13:05:24;;;;;;;5.75;1.40;;;;;;;30.00;23.02;100851.31;10294197;28;20058;-63
2023/05/27 13:10:26;;;;;;;6.55;1.27;;;;;;;29.44;22.40;100838.84;10300964;28;20047;-63
2023/05/27 13:15:28;;;;;;;7.28;1.20;;;;;;;29.54;22.68;100837.06;10302103;28;20046;-63
2023/05/27 13:20:30;;;;;;;3.33;0.90;;;;;;;29.66;22.28;100830.03;10304577;28;20073;-64
2023/05/27 13:25:31;;;;;;;4.15;1.30;;;;;;;30.31;22.11;100831.56;10303725;28;20039;-63
2023/05/27 13:30:33;;;;;;;5.50;1.00;;;;;;;30.99;21.67;100826.75;10299319;28;20049;-63
2023/05/27 13:35:35;;;;;;;5.95;1.88;;;;;;;31.52;20.77;100817.28;10295113;28;20049;-63
2023/05/27 13:40:36;;;;;;;5.28;1.52;;;;;;;31.69;20.41;100813.91;10301798;28;20038;-63
2023/05/27 13:45:38;;;;;;;4.82;0.90;;;;;;;31.93;20.02;100810.94;10298882;28;20050;-63
2023/05/27 13:50:39;;;;;;;4.80;1.05;;;;;;;32.35;20.07;100806.22;10286041;28;20074;-63
2023/05/27 13:55:42;;;;;;;5.13;0.98;;;;;;;32.87;19.29;100792.78;10301213;28;20049;-63
2023/05/27 14:00:44;;;;;;;4.43;1.38;;;;;;;34.31;18.30;100794.53;10300535;28;20050;-63
2023/05/27 14:05:45;;;;;;;4.82;1.17;;;;;;;35.62;16.87;100781.28;10298487;28;20058;-62
2023/05/27 14:10:47;;;;;;;6.10;1.30;;;;;;;35.85;17.16;100779.06;10299471;28;20051;-61
2023/05/27 14:15:48;;;;;;;5.15;0.88;;;;;;;35.13;17.18;100776.00;10299546;28;20540;-61
2023/05/27 14:20:50;;;;;;;7.30;1.30;;;;;;;34.50;17.54;100766.28;10294441;28;20038;-62
2023/05/27 14:25:52;;;;;;;6.85;1.20;;;;;;;34.01;18.36;100765.53;10279962;28;20494;-63
2023/05/27 14:30:54;;;;;;;5.05;1.00;;;;;;;34.39;17.86;100753.81;10301838;28;20053;-61
2023/05/27 14:35:55;;;;;;;4.25;1.13;;;;;;;34.48;17.78;100755.47;10302292;28;20057;-61
2023/05/27 14:40:57;;;;;;;5.78;1.20;;;;;;;34.72;17.84;100754.19;10301805;28;20066;-60
2023/05/27 14:45:58;;;;;;;4.72;1.30;;;;;;;35.49;17.61;100732.00;10300646;28;20038;-61
2023/05/27 14:51:00;;;;;;;7.07;0.93;;;;;;;35.55;16.86;100733.44;10298150;28;20046;-63
2023/05/27 14:56:01;;;;;;;4.35;1.02;;;;;;;35.12;16.23;100731.59;10303738;28;20050;-62
2023/05/27 15:01:03;;;;;;;5.95;1.40;;;;;;;35.01;17.10;100721.91;10298372;28;20046;-61
2023/05/27 15:06:05;;;;;;;6.03;1.10;;;;;;;34.77;17.73;100712.09;10303325;28;20505;-64
2023/05/27 15:11:06;;;;;;;6.15;1.23;;;;;;;34.83;17.41;100716.34;10299798;28;20050;-63
2023/05/27 15:16:08;;;;;;;6.28;1.35;;;;;;;34.74;17.44;100723.94;10296259;28;20053;-63
2023/05/27 15:21:09;;;;;;;7.55;1.52;;;;;;;34.86;17.81;100714.91;10294590;28;20055;-63
2023/05/27 15:26:11;;;;;;;11.65;3.22;;;;;;;34.03;17.02;100705.50;10293580;28;20054;-63
2023/05/27 15:31:12;;;;;;;5.00;1.42;;;;;;;34.03;17.48;100707.47;10298313;28;20387;-62
2023/05/27 15:36:14;;;;;;;3.92;1.02;;;;;;;33.49;18.31;100700.06;10302738;28;20085;-62
2023/05/27 15:41:15;;;;;;;3.10;0.82;;;;;;;33.70;18.24;100697.53;10297511;28;20050;-63
2023/05/27 15:46:17;;;;;;;5.45;1.20;;;;;;;33.57;18.10;100687.28;10299262;28;20401;-63
2023/05/27 15:51:19;;;;;;;7.97;1.20;;;;;;;33.64;18.11;100689.66;10295141;28;20111;-64
2023/05/27 15:56:20;;;;;;;4.30;0.80;;;;;;;33.63;17.74;100679.63;10290549;28;20311;-62
2023/05/27 16:01:22;;;;;;;4.07;1.08;;;;;;;33.36;17.77;100673.94;10295244;28;20042;-62
2023/05/27 16:06:23;;;;;;;6.43;1.00;;;;;;;33.70;17.77;100674.41;10294128;28;20043;-61
2023/05/27 16:11:24;;;;;;;3.97;0.95;;;;;;;33.72;17.84;100672.94;10297511;28;20050;-61
2023/05/27 16:16:27;;;;;;;5.82;1.30;;;;;;;34.00;18.10;100663.47;10295014;28;20057;-62
2023/05/27 16:21:28;;;;;;;6.05;1.52;;;;;;;34.26;18.02;100652.31;10297022;28;20049;-62
2023/05/27 16:26:29;;;;;;;3.10;1.30;;;;;;;34.00;17.64;100650.31;10293250;28;20053;-61
2023/05/27 16:31:31;;;;;;;2.65;1.15;;;;;;;33.47;17.83;100643.78;10294807;28;20042;-62
2023/05/27 16:36:33;;;;;;;3.88;1.20;;;;;;;33.58;17.66;100644.31;10292361;28;20042;-62
2023/05/27 16:41:34;;;;;;;3.63;1.13;;;;;;;33.54;18.13;100641.38;10296054;28;20062;-61
2023/05/27 16:46:36;;;;;;;2.97;1.05;;;;;;;33.77;17.81;100642.09;10298296;28;20042;-62
2023/05/27 16:51:38;;;;;;;6.57;1.48;;;;;;;33.84;17.45;100636.03;10279760;28;20050;-61
2023/05/27 16:56:39;;;;;;;7.47;1.42;;;;;;;33.63;17.96;100629.44;10292823;28;20049;-62
2023/05/27 17:01:41;;;;;;;5.75;1.30;;;;;;;33.77;18.10;100622.59;10297553;28;20436;-62
2023/05/27 17:06:42;;;;;;;5.80;2.22;;;;;;;33.73;18.02;100621.59;10291890;28;20561;-62
2023/05/27 17:11:44;;;;;;;4.45;1.20;;;;;;;33.75;17.35;100624.03;10297550;28;20536;-60
2023/05/27 17:16:45;;;;;;;6.82;1.30;;;;;;;33.85;18.10;100620.09;10292451;28;20031;-60
2023/05/27 17:21:47;;;;;;;5.10;1.20;;;;;;;33.62;18.11;100611.03;10279551;28;20050;-62
2023/05/27 17:26:48;;;;;;;3.15;0.95;;;;;;;33.35;18.13;100619.31;10282172;28;20053;-61
2023/05/27 17:31:50;;;;;;;3.45;1.40;;;;;;;33.16;18.27;100610.44;10299150;28;20043;-61
2023/05/27 17:36:51;;;;;;;4.93;1.48;;;;;;;33.19;18.50;100610.59;10298941;28;20125;-62
2023/05/27 17:41:53;;;;;;;4.78;1.50;;;;;;;33.08;18.63;100613.97;10300063;28;20050;-61
2023/05/27 17:46:54;;;;;;;5.88;1.92;;;;;;;33.08;19.23;100602.81;10304914;28;20050;-62
2023/05/27 17:51:56;;;;;;;6.82;2.10;;;;;;;32.98;19.53;100606.72;10297430;28;20049;-60
2023/05/27 17:57:00;;;;;;;4.85;2.05;;;;;;;32.63;19.89;100608.50;10298052;28;20043;-62
2023/05/27 18:02:02;;;;;;;8.23;2.65;;;;;;;32.45;20.41;100600.03;10299056;28;20085;-61
2023/05/27 18:07:03;;;;;;;8.88;2.60;;;;;;;31.98;21.06;100600.28;10306505;28;20098;-61
2023/05/27 18:12:06;;;;;;;6.45;1.80;;;;;;;31.18;21.57;100607.28;10302366;28;20077;-61
2023/05/27 18:17:08;;;;;;;7.93;2.00;;;;;;;30.28;22.56;100601.91;10297878;28;20043;-61
2023/05/27 18:22:09;;;;;;;6.63;2.47;;;;;;;29.32;24.02;100616.00;10295013;28;20370;-61
2023/05/27 18:27:11;;;;;;;9.88;2.60;;;;;;;28.65;24.28;100611.97;10306137;28;20034;-62
2023/05/27 18:32:12;;;;;;;9.27;2.67;;;;;;;27.95;25.63;100614.13;10296236;28;20066;-64
2023/05/27 18:37:14;;;;;;;8.18;2.42;;;;;;;27.25;26.17;100617.72;10297281;28;20050;-63
2023/05/27 18:42:15;;;;;;;4.80;2.17;;;;;;;26.77;27.35;100623.59;10296962;28;20042;-64
2023/05/27 18:47:17;;;;;;;7.35;2.08;;;;;;;26.33;28.05;100623.31;10299740;28;20046;-64
2023/05/27 18:52:18;;;;;;;5.05;2.10;;;;;;;25.89;28.28;100630.13;10300888;28;20053;-62
2023/05/27 18:57:23;;;;;;;10.27;2.28;;;;;;;25.61;29.18;100634.97;10288238;28;20434;-65
2023/05/27 19:02:24;;;;;;;7.25;2.42;;;;;;;25.23;29.99;100639.75;10295477;28;20043;-64
2023/05/27 19:07:26;;;;;;;7.50;2.33;;;;;;;24.88;30.92;100643.06;10294080;28;20134;-63
2023/05/27 19:12:27;;;;;;;7.40;2.63;;;;;;;24.56;31.67;100651.34;10298143;28;20053;-62
2023/05/27 19:17:28;;;;;;;9.18;2.50;;;;;;;24.15;32.42;100649.84;10294576;28;20058;-62
2023/05/27 19:22:30;;;;;;;7.65;2.72;;;;;;;23.85;32.86;100644.00;10291417;28;20061;-64
2023/05/27 19:27:31;;;;;;;8.10;3.28;;;;;;;23.56;33.72;100647.78;10294550;28;20069;-62
2023/05/27 19:32:33;;;;;;;8.18;2.65;;;;;;;23.30;34.21;100646.59;10294002;28;20468;-63
2023/05/27 19:37:35;;;;;;;10.20;2.67;;;;;;;22.99;34.97;100659.00;10300687;28;20038;-64
2023/05/27 19:42:36;;;;;;;8.13;2.83;;;;;;;22.69;35.56;100659.34;10300809;28;20046;-62
2023/05/27 19:47:37;;;;;;;9.32;2.88;;;;;;;22.53;35.83;100663.75;10297383;28;20039;-63
2023/05/27 19:52:39;;;;;;;7.72;2.78;;;;;;;22.33;36.05;100669.69;10281938;28;20039;-62
2023/05/27 19:57:41;;;;;;;10.90;3.80;;;;;;;22.13;36.69;100667.38;10293760;28;20046;-62
2023/05/27 20:02:42;;;;;;;10.70;2.63;;;;;;;21.96;36.78;100670.09;10294852;28;20527;-62
2023/05/27 20:07:44;;;;;;;14.75;3.42;;;;;;;21.85;37.38;100665.47;10298667;28;20138;-66
2023/05/27 20:12:48;;;;;;;10.00;2.63;;;;;;;21.65;37.12;100665.91;10324581;28;20051;-65
2023/05/27 20:17:50;;;;;;;6.68;2.50;;;;;;;21.36;37.81;100665.78;10317013;28;20054;-65
2023/05/27 20:22:52;;;;;;;10.57;2.47;;;;;;;21.16;37.85;100680.66;10289036;28;20050;-65
2023/05/27 20:27:53;;;;;;;8.70;2.22;;;;;;;21.02;37.86;100676.50;10288780;28;20085;-65
2023/05/27 20:32:56;;;;;;;7.45;2.25;;;;;;;20.90;37.94;100679.22;10292834;28;20043;-66
2023/05/27 20:37:59;;;;;;;6.72;2.63;;;;;;;20.68;38.07;100684.44;10297407;28;20054;-65
2023/05/27 20:43:01;;;;;;;7.65;2.90;;;;;;;20.50;38.59;100689.94;10294310;28;20059;-66
2023/05/27 20:48:03;;;;;;;6.47;2.88;;;;;;;20.29;39.11;100681.19;10295921;28;20399;-67
2023/05/27 20:53:06;;;;;;;7.90;3.10;;;;;;;20.15;39.18;100680.56;10288079;28;20106;-66
2023/05/27 20:58:08;;;;;;;9.10;4.22;;;;;;;19.92;39.53;100685.91;10293619;28;20051;-66
2023/05/27 21:03:10;;;;;;;7.82;3.42;;;;;;;19.85;39.63;100683.28;10295476;28;20051;-67
2023/05/27 21:08:11;;;;;;;8.55;3.55;;;;;;;19.69;39.84;100681.97;10304611;28;20304;-64
2023/05/27 21:13:13;;;;;;;10.65;1.83;;;;;;;19.59;39.73;100677.03;10307591;28;20038;-66
2023/05/27 21:18:15;;;;;;;6.82;2.75;;;;;;;19.51;39.98;100671.91;10306962;28;20042;-66
2023/05/27 21:23:16;;;;;;;8.02;2.40;;;;;;;19.48;40.03;100668.78;10302869;28;20046;-67
2023/05/27 21:28:19;;;;;;;6.55;2.10;;;;;;;19.42;40.43;100665.06;10303564;28;20133;-65
2023/05/27 21:33:20;;;;;;;9.68;2.72;;;;;;;19.38;40.55;100670.16;10291847;28;20101;-65
2023/05/27 21:38:22;;;;;;;13.45;2.58;;;;;;;19.32;40.86;100665.59;10305736;28;20046;-65
2023/05/27 21:43:24;;;;;;;15.98;5.03;;;;;;;19.21;41.33;100663.63;10289090;28;20398;-66
2023/05/27 21:48:26;;;;;;;10.57;2.97;;;;;;;19.10;41.95;100661.66;10286283;28;20109;-66
2023/05/27 21:53:29;;;;;;;11.05;3.38;;;;;;;18.99;42.16;100668.66;10298585;28;20038;-71
2023/05/27 21:58:30;;;;;;;13.15;4.70;;;;;;;18.89;42.60;100671.06;10299361;28;20066;-63
2023/05/27 22:03:31;;;;;;;10.15;4.53;;;;;;;18.74;43.04;100671.34;10299248;28;20061;-72
2023/05/27 22:08:34;;;;;;;7.78;4.20;;;;;;;18.66;43.13;100661.59;10296098;28;20050;-72
2023/05/27 22:13:36;;;;;;;8.52;4.50;;;;;;;18.55;43.12;100673.19;10296535;28;20046;-66
2023/05/27 22:18:37;;;;;;;12.68;4.43;;;;;;;18.38;43.45;100667.44;10299458;28;20043;-67
2023/05/27 22:23:39;;;;;;;9.25;4.22;;;;;;;18.22;44.25;100668.78;10293027;28;20050;-71
2023/05/27 22:28:42;;;;;;;9.27;4.57;;;;;;;18.06;44.64;100661.16;10296395;28;20524;-69
2023/05/27 22:33:44;;;;;;;8.27;3.55;;;;;;;17.93;45.04;100651.16;10307263;28;20406;-73
2023/05/27 22:38:45;;;;;;;12.32;5.90;;;;;;;17.73;45.65;100654.78;10301935;28;20050;-69
2023/05/27 22:43:47;;;;;;;10.90;5.82;;;;;;;17.55;46.00;100650.03;10294566;28;20046;-64
2023/05/27 22:48:48;;;;;;;9.48;4.07;;;;;;;17.41;46.34;100651.97;10298868;28;20065;-70
2023/05/27 22:53:50;;;;;;;8.73;4.68;;;;;;;17.29;46.88;100642.81;10297515;28;20054;-71
2023/05/27 22:58:51;;;;;;;10.18;4.93;;;;;;;17.17;47.00;100637.19;10296950;28;20042;-72
2023/05/27 23:03:52;;;;;;;14.63;5.07;;;;;;;17.09;47.43;100639.31;10295035;28;20502;-69